KLM741 EHAM-SKBO
Flight info
| Callsign | KLM741 |
|---|---|
| Flight time | N/A |
| Altitude | 34000 |
| Route | IDRID2N IDRID L980 LOGAN DCT SAM N19 ADKIK DCT JOZMA DCT GAPLI/M082F340 DCT OMOKO DCT 45N020W 38N030W/M082F360 30N040W/M082F380 26N045W 22N050W DCT GLAAS/N0474F380 DCT 17N057W DCT ONGAL/N0469F400 UA551 MASPA DCT TOROP DCT PBL UP533 KIKAS DCT DOPLO DOPLO4W |
| Aircraft | A339/H-SADE1E2E3GHIJ3J5M1P2RWXY/LB2D1 |
Departure
| Time | 2026-04-30 06:41 |
|---|---|
| Airport | Amsterdam Airport Schiphol (EHAM) |
Arrival
| Time | N/A |
|---|---|
| Airport | El Dorado International Airport (SKBO) |
| Time | Latitude | Longitude | Altitude | Speed | Heading |
|---|---|---|---|---|---|
| 2026-04-30 06:25 | 52.31274 | 4.76036 | 3 ft | 0 kts | 108° |
| 2026-04-30 06:32 | 52.31278 | 4.76015 | 4 ft | 2 kts | 108° |
| 2026-04-30 06:33 | 52.31283 | 4.75993 | 4 ft | 2 kts | 97° |
| 2026-04-30 06:33 | 52.31285 | 4.75970 | 5 ft | 2 kts | 67° |
| 2026-04-30 06:33 | 52.31280 | 4.75947 | 4 ft | 2 kts | 37° |
| 2026-04-30 06:33 | 52.31268 | 4.75933 | 7 ft | 2 kts | 7° |
| 2026-04-30 06:34 | 52.31263 | 4.75930 | 7 ft | 0 kts | 357° |
| 2026-04-30 06:35 | 52.31264 | 4.75930 | 7 ft | 0 kts | 357° |
| 2026-04-30 06:35 | 52.31273 | 4.75930 | 6 ft | 3 kts | 357° |
| 2026-04-30 06:35 | 52.31309 | 4.75927 | 3 ft | 7 kts | 357° |
| 2026-04-30 06:36 | 52.31368 | 4.75926 | 3 ft | 9 kts | 0° |
| 2026-04-30 06:36 | 52.31431 | 4.75924 | 3 ft | 9 kts | 357° |
| 2026-04-30 06:36 | 52.31495 | 4.75914 | 3 ft | 9 kts | 347° |
| 2026-04-30 06:36 | 52.31524 | 4.75836 | 3 ft | 8 kts | 280° |
| 2026-04-30 06:37 | 52.31523 | 4.75740 | 3 ft | 9 kts | 268° |
| 2026-04-30 06:37 | 52.31520 | 4.75639 | 3 ft | 9 kts | 267° |
| 2026-04-30 06:37 | 52.31516 | 4.75534 | 3 ft | 9 kts | 265° |
| 2026-04-30 06:37 | 52.31511 | 4.75425 | 3 ft | 10 kts | 265° |
| 2026-04-30 06:38 | 52.31506 | 4.75310 | 3 ft | 10 kts | 266° |
| 2026-04-30 06:38 | 52.31502 | 4.75190 | 3 ft | 11 kts | 267° |
| 2026-04-30 06:38 | 52.31499 | 4.75067 | 3 ft | 11 kts | 267° |
| 2026-04-30 06:38 | 52.31495 | 4.74940 | 3 ft | 11 kts | 267° |
| 2026-04-30 06:39 | 52.31491 | 4.74810 | 3 ft | 12 kts | 267° |
| 2026-04-30 06:39 | 52.31505 | 4.74688 | 3 ft | 10 kts | 311° |
| 2026-04-30 06:39 | 52.31573 | 4.74661 | 4 ft | 10 kts | 351° |
| 2026-04-30 06:39 | 52.31629 | 4.74661 | 5 ft | 8 kts | 7° |
| 2026-04-30 06:40 | 52.31662 | 4.74713 | 6 ft | 6 kts | 63° |
| 2026-04-30 06:40 | 52.31669 | 4.74786 | 5 ft | 7 kts | 85° |
| 2026-04-30 06:40 | 52.31673 | 4.74886 | 2 ft | 12 kts | 87° |
| 2026-04-30 06:40 | 52.31686 | 4.75272 | 2 ft | 68 kts | 86° |
| 2026-04-30 06:41 | 52.31724 | 4.76404 | 4 ft | 131 kts | 86° |
| 2026-04-30 06:41 | 52.31786 | 4.78142 | 163 ft | 165 kts | 88° |
| 2026-04-30 06:41 | 52.31877 | 4.80034 | 826 ft | 169 kts | 87° |
| 2026-04-30 06:41 | 52.32211 | 4.81897 | 1411 ft | 182 kts | 57° |
| 2026-04-30 06:42 | 52.33357 | 4.82933 | 1937 ft | 207 kts | 14° |
| 2026-04-30 06:42 | 52.34835 | 4.82461 | 2223 ft | 236 kts | 337° |
| 2026-04-30 06:42 | 52.36327 | 4.81077 | 2571 ft | 253 kts | 333° |
| 2026-04-30 06:42 | 52.37877 | 4.79568 | 3042 ft | 263 kts | 332° |
| 2026-04-30 06:43 | 52.39345 | 4.77854 | 3915 ft | 256 kts | 323° |
| 2026-04-30 06:43 | 52.40623 | 4.75783 | 4538 ft | 262 kts | 317° |
| 2026-04-30 06:43 | 52.41958 | 4.73593 | 4788 ft | 281 kts | 319° |
| 2026-04-30 06:43 | 52.43373 | 4.71333 | 5144 ft | 290 kts | 319° |
| 2026-04-30 06:44 | 52.44815 | 4.69009 | 5727 ft | 291 kts | 317° |
| 2026-04-30 06:44 | 52.45957 | 4.66236 | 6203 ft | 298 kts | 292° |
| 2026-04-30 06:44 | 52.46352 | 4.62913 | 6766 ft | 298 kts | 267° |
| 2026-04-30 06:44 | 52.45926 | 4.59605 | 7260 ft | 296 kts | 243° |
| 2026-04-30 06:45 | 52.44939 | 4.56646 | 7787 ft | 297 kts | 234° |
| 2026-04-30 06:45 | 52.43869 | 4.53782 | 8294 ft | 299 kts | 236° |
| 2026-04-30 06:45 | 52.42857 | 4.50781 | 8842 ft | 302 kts | 239° |
| 2026-04-30 06:45 | 52.41889 | 4.47696 | 9359 ft | 305 kts | 237° |
| 2026-04-30 06:46 | 52.40854 | 4.44644 | 9886 ft | 308 kts | 238° |
| 2026-04-30 06:46 | 52.39837 | 4.41544 | 10421 ft | 310 kts | 238° |
| 2026-04-30 06:46 | 52.38807 | 4.38367 | 10695 ft | 323 kts | 239° |
| 2026-04-30 06:46 | 52.37730 | 4.35049 | 10846 ft | 338 kts | 239° |
| 2026-04-30 06:47 | 52.36601 | 4.31575 | 11006 ft | 353 kts | 239° |
| 2026-04-30 06:47 | 52.35425 | 4.27964 | 11313 ft | 361 kts | 239° |
| 2026-04-30 06:47 | 52.34255 | 4.24373 | 11798 ft | 363 kts | 239° |
| 2026-04-30 06:47 | 52.33061 | 4.20718 | 12269 ft | 366 kts | 239° |
| 2026-04-30 06:48 | 52.31849 | 4.17026 | 12749 ft | 368 kts | 238° |
| 2026-04-30 06:48 | 52.30441 | 4.13521 | 13204 ft | 368 kts | 229° |